Terminal Aerodrome Forecast
Issued by NWS Cleveland, OH

Home | Current Version | Previous Version | Text Only | Print | Product List | Glossary Off
Versions: 1 2 3 4 5 6 7 8 9 10 11 12 13 14 15 16 17 18 19 20 21 22 23 24 25 26 27 28

000
FTUS41 KCLE 221400 AAA
TAFCLE
TAF AMD
KCLE 221404Z 2214/2318 19012KT 3SM -FZRA BKN025 OVC040
      WS020/24045KT
     FM221530 20015G21KT 6SM -RA BR SCT008 OVC015 WS020/22045KT
     FM221700 20015G22KT P6SM SCT015 BKN025 OVC040
     FM222000 19015KT P6SM OVC040=

USA.gov is the U.S. government's official web portal to all federal, state and local government web resources and services.